Latest Weather Observations for Portland Airport

IDV60801

Issued at 6:32 pm EDT Tuesday 17 October 2017 (issued every 30 minutes, with the page automatically refreshed every 10 minutes)

About weather observations | Map of weather stations | Latest weather observations for VIC | Other Formats
Station Details ID: 090171 Name: CASHMORE AIRPORT Lat: -38.31 Lon: 141.47 Height: 80.9 m
Data from the previous 72 hours. | See also: Recent months at Portland Airport
Date/Time
EDT
Temp
°C
App
Temp
°C
Dew
Point
°C
Rel
Hum
%
Delta-T
°C
Wind Press
QNH
hPa
Press
MSL
hPa
Rain since
9am
mm
Dir  Spd
km/h
Gust
km/h
Spd
kts
Gust
kts
17/06:30pm 27.1 25.3 10.8 36 9.2 NE 11 13 6 7 1018.0 1018.0 0.0
17/06:00pm 27.9 25.9 11.5 36 9.4 NNE 13 19 7 10 1017.8 1017.8 0.0
17/05:30pm 28.2 25.1 10.4 33 10.1 NNE 17 24 9 13 1017.7 1017.7 0.0
17/05:00pm 28.3 25.1 10.0 32 10.3 NNE 17 24 9 13 1017.6 1017.6 0.0
17/04:30pm 28.5 24.6 8.7 29 10.9 NNE 19 28 10 15 1017.7 1017.7 0.0
17/04:00pm 28.6 24.3 7.8 27 11.3 NNE 20 32 11 17 1017.8 1017.8 0.0
17/03:30pm 29.2 25.9 10.8 32 10.5 NNE 19 30 10 16 1018.0 1018.0 0.0
17/03:00pm 29.3 25.9 10.4 31 10.7 N 19 28 10 15 1018.2 1018.2 0.0
17/02:30pm 29.2 25.8 11.3 33 10.3 N 20 30 11 16 1018.5 1018.5 0.0
17/02:00pm 29.1 26.5 12.1 35 9.9 N 17 24 9 13 1018.7 1018.7 0.0
17/01:30pm 28.4 24.7 9.6 31 10.5 NNE 19 28 10 15 1018.8 1018.8 0.0
17/01:00pm 28.3 24.6 10.0 32 10.3 N 20 33 11 18 1019.0 1019.0 0.0
17/12:30pm 27.9 24.2 10.1 33 10.0 NNE 20 28 11 15 1019.2 1019.2 0.0
17/12:00pm 27.2 23.0 8.1 30 10.3 NNE 20 28 11 15 1019.5 1019.5 0.0
17/11:30am 26.3 22.6 10.0 36 9.1 NNE 20 28 11 15 1019.7 1019.7 0.0
17/11:00am 25.3 21.9 10.4 39 8.3 N 19 28 10 15 1019.8 1019.8 0.0
17/10:30am 24.3 20.7 10.6 42 7.6 N 20 28 11 15 1019.9 1019.9 0.0
17/10:00am 23.2 19.5 9.6 42 7.4 N 19 28 10 15 1019.8 1019.8 0.0
17/09:30am 22.0 18.5 10.2 47 6.4 N 19 28 10 15 1019.8 1019.8 0.0
17/09:00am 20.7 17.0 9.3 48 6.1 NNE 19 28 10 15 1019.7 1019.7 0.0
17/08:30am 19.5 15.9 8.5 49 5.7 N 17 24 9 13 1019.6 1019.6 0.0
17/08:00am 18.6 15.0 8.3 51 5.3 N 17 26 9 14 1019.4 1019.4 0.0
17/07:30am 17.2 13.9 8.1 55 4.6 N 15 20 8 11 1019.2 1019.2 0.0
17/07:00am 16.7 13.5 8.4 58 4.2 N 15 20 8 11 1019.1 1019.1 0.0
17/06:30am 16.1 12.6 8.8 62 3.8 N 17 20 9 11 1018.8 1018.8 0.0
17/06:00am 15.6 12.9 10.2 70 2.8 N 15 20 8 11 1018.6 1018.6 0.0
17/05:30am 14.7 12.9 10.7 77 2.1 N 11 15 6 8 1018.5 1018.5 0.0
17/05:00am 15.1 13.6 11.9 81 1.7 N 11 17 6 9 1018.5 1018.5 0.0
17/04:30am 14.6 13.2 12.1 85 1.4 N 11 15 6 8 1018.5 1018.5 0.0
17/04:00am 14.4 13.0 12.3 87 1.1 N 11 15 6 8 1018.6 1018.6 0.0
17/03:30am 14.4 13.1 12.4 88 1.1 N 11 13 6 7 1018.9 1018.9 0.0
17/03:00am 14.1 13.0 12.1 88 1.1 NE 9 13 5 7 1019.1 1019.1 0.0
17/02:30am 13.9 12.8 12.1 89 1.0 NE 9 9 5 5 1019.2 1019.2 0.0
17/02:00am 13.6 12.8 11.8 89 1.0 NE 7 9 4 5 1019.7 1019.7 0.0
17/01:30am 13.8 12.7 12.0 89 1.0 NE 9 11 5 6 1020.2 1020.2 0.0
17/01:00am 13.4 12.6 11.6 89 1.0 NE 7 9 4 5 1020.5 1020.5 0.0
17/12:30am 13.3 12.4 11.5 89 1.0 ENE 7 9 4 5 1020.7 1020.7 0.0
17/12:00am 13.6 13.0 11.8 89 1.0 ENE 6 7 3 4 1021.0 1021.0 0.0
 
Date/Time
EDT
Temp
°C
App
Temp
°C
Dew
Point
°C
Rel
Hum
%
Delta-T
°C
Wind Press
QNH
hPa
Press
MSL
hPa
Rain since
9am
mm
Dir  Spd
km/h
Gust
km/h
Spd
kts
Gust
kts
16/11:30pm 13.6 14.1 11.7 88 1.0 CALM 0 7 0 4 1021.1 1021.1 0.0
16/11:00pm 14.3 14.3 12.3 88 1.1 ENE 4 6 2 3 1021.3 1021.3 0.0
16/10:30pm 14.6 14.1 12.5 87 1.2 E 7 11 4 6 1021.5 1021.5 0.0
16/10:00pm 14.8 14.3 12.7 87 1.2 E 7 11 4 6 1021.6 1021.6 0.0
16/09:30pm 15.0 14.1 12.7 86 1.3 E 9 11 5 6 1021.6 1021.6 0.0
16/09:00pm 15.4 14.2 12.9 85 1.4 E 11 15 6 8 1021.4 1021.4 0.0
16/08:30pm 15.5 14.6 12.6 83 1.6 ENE 9 15 5 8 1021.1 1021.1 0.0
16/08:00pm 16.1 15.3 12.8 81 1.8 E 9 15 5 8 1021.0 1021.0 0.0
16/07:30pm 17.2 16.1 13.1 77 2.3 E 11 15 6 8 1020.9 1020.9 0.0
16/07:00pm 18.6 18.5 13.9 74 2.7 E 7 13 4 7 1020.8 1020.8 0.0
16/06:30pm 19.2 18.4 14.0 72 3.0 E 11 17 6 9 1020.7 1020.7 0.0
16/06:00pm 19.8 18.4 14.4 71 3.1 E 15 20 8 11 1020.7 1020.7 0.0
16/05:30pm 21.4 20.9 15.9 71 3.3 E 13 19 7 10 1020.7 1020.7 0.0
16/05:00pm 22.1 21.8 16.4 70 3.5 E 13 20 7 11 1020.7 1020.7 0.0
16/04:30pm 22.7 22.4 16.5 68 3.8 E 13 19 7 10 1020.8 1020.8 0.0
16/04:00pm 23.3 22.9 16.1 64 4.4 E 13 20 7 11 1020.9 1020.9 0.0
16/03:30pm 23.4 22.6 16.0 63 4.5 E 15 22 8 12 1021.1 1021.1 0.0
16/03:00pm 24.0 24.4 16.3 62 4.7 E 9 17 5 9 1021.5 1021.5 0.0
16/02:30pm 24.9 25.2 17.1 62 4.9 E 11 15 6 8 1021.7 1021.7 0.0
16/02:00pm 24.4 24.9 16.6 61 4.8 E 9 13 5 7 1022.0 1022.1 0.0
16/01:30pm 23.7 23.4 15.5 60 4.9 E 11 17 6 9 1022.1 1022.2 0.0
16/01:00pm 23.7 23.8 15.5 60 4.9 E 9 17 5 9 1022.3 1022.4 0.0
16/12:30pm 23.5 23.2 15.5 60 4.8 NNE 11 17 6 9 1022.6 1022.7 0.0
16/12:00pm 22.2 21.2 14.6 62 4.5 NNE 13 17 7 9 1023.0 1023.1 0.0
16/11:30am 20.7 20.2 15.0 70 3.4 NNE 11 19 6 10 1023.3 1023.4 0.0
16/11:00am 17.8 17.9 15.4 86 1.4 NE 9 13 5 7 1023.8 1023.9 0.0
16/10:30am 15.5 15.4 13.9 90 0.9 ESE 7 9 4 5 1024.0 1024.1 0.0
16/10:00am 13.7 13.1 12.4 92 0.7 ENE 7 11 4 6 1023.9 1024.0 0.0
16/09:39am 12.3 10.6 11.2 93 0.6 NE 11 15 6 8 1023.9 1024.0 0.0
16/09:30am 12.5 10.9 11.4 93 0.6 NE 11 17 6 9 1023.8 1023.9 0.0
16/09:24am 11.8 10.0 10.7 93 0.6 NE 11 15 6 8 1023.8 1023.9 0.0
16/09:00am 11.0 9.3 9.9 93 0.6 NE 9 17 5 9 1023.8 1023.9 0.0
16/08:30am 10.5 8.3 9.4 93 0.6 ENE 11 17 6 9 1023.8 1023.9 0.0
16/08:00am 10.2 8.3 9.1 93 0.5 ENE 9 15 5 8 1023.7 1023.8 0.0
16/07:30am 9.6 7.6 8.5 93 0.5 NE 9 13 5 7 1023.7 1023.8 0.0
16/07:00am 9.1 7.3 8.0 93 0.5 NE 7 11 4 6 1023.3 1023.4 0.0
16/06:30am 9.4 7.3 8.2 92 0.6 ENE 9 13 5 7 1023.0 1023.1 0.0
16/06:00am 9.6 7.9 8.4 92 0.6 ENE 7 11 4 6 1022.8 1022.9 0.0
16/05:41am 9.6 7.9 8.4 92 0.6 NE 7 11 4 6 1022.7 1022.8 0.0
16/05:33am 9.8 8.2 8.6 92 0.6 NE 7 11 4 6 1022.7 1022.8 0.0
16/05:30am 9.8 8.2 8.6 92 0.6 NE 7 11 4 6 1022.7 1022.8 0.0
16/05:12am 10.1 8.2 8.9 92 0.6 NE 9 13 5 7 1022.7 1022.8 0.0
16/05:09am 10.0 8.0 8.8 92 0.6 NE 9 13 5 7 1022.7 1022.8 0.0
16/05:00am 10.2 8.3 9.0 92 0.6 NE 9 13 5 7 1022.8 1022.9 0.0
16/04:30am 10.7 9.2 9.3 91 0.7 NE 7 11 4 6 1023.0 1023.1 0.0
16/04:12am 10.9 9.1 9.5 91 0.7 NE 9 11 5 6 1023.0 1023.1 0.0
16/04:07am 10.9 9.5 9.5 91 0.7 NE 7 11 4 6 1023.0 1023.1 0.0
16/04:00am 10.9 9.1 9.5 91 0.7 ENE 9 13 5 7 1023.0 1023.1 0.0
16/03:49am 11.1 9.4 9.7 91 0.7 ENE 9 13 5 7 1023.1 1023.2 0.0
16/03:30am 11.3 9.2 9.9 91 0.7 ENE 11 15 6 8 1023.2 1023.3 0.0
16/03:00am 11.7 9.3 10.1 90 0.8 ENE 13 20 7 11 1023.5 1023.6 0.0
16/02:30am 11.8 9.1 10.2 90 0.8 ENE 15 22 8 12 1023.9 1024.0 0.0
16/02:00am 11.8 9.1 10.2 90 0.8 E 15 20 8 11 1024.1 1024.2 0.0
16/01:30am 11.8 9.0 10.0 89 0.9 ENE 15 22 8 12 1024.5 1024.6 0.0
16/01:00am 11.9 9.1 10.1 89 0.9 E 15 26 8 14 1024.7 1024.8 0.0
16/12:30am 12.0 9.3 10.2 89 0.9 E 15 24 8 13 1024.9 1025.0 0.0
16/12:00am 12.0 9.6 10.1 88 1.0 E 13 22 7 12 1025.0 1025.1 0.0
 
Date/Time
EDT
Temp
°C
App
Temp
°C
Dew
Point
°C
Rel
Hum
%
Delta-T
°C
Wind Press
QNH
hPa
Press
MSL
hPa
Rain since
9am
mm
Dir  Spd
km/h
Gust
km/h
Spd
kts
Gust
kts
15/11:30pm 11.8 8.6 9.9 88 1.0 E 17 22 9 12 1025.2 1025.2 0.0
15/11:00pm 11.8 8.9 9.7 87 1.1 E 15 24 8 13 1025.0 1025.1 0.0
15/10:30pm 11.9 8.7 9.8 87 1.1 E 17 24 9 13 1025.2 1025.2 0.0
15/10:00pm 12.0 9.2 9.9 87 1.1 E 15 22 8 12 1025.2 1025.2 0.0
15/09:30pm 11.9 9.0 9.6 86 1.2 ESE 15 28 8 15 1025.0 1025.1 0.0
15/09:00pm 12.0 9.5 9.6 85 1.2 ESE 13 22 7 12 1025.0 1025.1 0.0
15/08:30pm 12.0 9.1 9.6 85 1.2 E 15 24 8 13 1024.6 1024.7 0.0
15/08:00pm 12.2 9.3 9.6 84 1.3 E 15 22 8 12 1024.6 1024.7 0.0
15/07:30pm 12.5 9.2 9.7 83 1.4 ESE 17 22 9 12 1024.7 1024.8 0.0
15/07:00pm 12.7 10.1 9.5 81 1.6 ESE 13 22 7 12 1024.7 1024.8 0.0
15/06:30pm 13.1 9.8 9.7 80 1.7 ESE 17 24 9 13 1024.5 1024.6 0.0
15/06:00pm 13.5 10.7 9.9 79 1.9 SE 15 22 8 12 1024.6 1024.7 0.0
15/05:30pm 13.7 10.4 9.7 77 2.1 SE 17 22 9 12 1024.7 1024.8 0.0
15/05:00pm 13.8 10.9 9.5 75 2.2 ESE 15 22 8 12 1024.6 1024.7 0.0
15/04:44pm 14.2 11.0 9.8 75 2.3 SE 17 22 9 12 1024.6 1024.7 0.0
15/04:30pm 14.8 12.4 10.2 74 2.4 ESE 13 22 7 12 1024.6 1024.7 0.0
15/04:00pm 15.1 12.8 10.5 74 2.4 ESE 13 20 7 11 1024.8 1024.9 0.0
15/03:30pm 15.5 13.3 10.9 74 2.5 ESE 13 19 7 10 1025.0 1025.1 0.0
15/03:00pm 15.3 13.4 10.5 73 2.5 SE 11 17 6 9 1025.2 1025.2 0.0
15/02:30pm 15.5 13.3 10.9 74 2.5 ESE 13 19 7 10 1025.4 1025.4 0.0
15/02:00pm 14.7 12.3 9.9 73 2.5 ESE 13 19 7 10 1025.4 1025.4 0.0
15/01:30pm 14.2 11.3 9.8 75 2.3 SSE 15 24 8 13 1025.5 1025.5 0.0
15/01:00pm 13.7 10.7 9.2 74 2.3 S 15 22 8 12 1025.7 1025.7 0.0
15/12:30pm 14.9 12.5 9.9 72 2.6 SE 13 19 7 10 1025.9 1025.9 0.0
15/12:00pm 14.8 13.1 9.8 72 2.6 ESE 9 17 5 9 1026.1 1026.1 0.0
15/11:36am 15.1 13.5 10.3 73 2.5 SE 9 13 5 7 1026.1 1026.1 0.0
15/11:30am 15.1 13.6 10.7 75 2.3 SE 9 13 5 7 1026.2 1026.2 0.0
15/11:21am 13.9 12.1 9.5 75 2.3 SE 9 15 5 8 1026.3 1026.3 0.0
15/11:00am 14.4 12.8 10.2 76 2.2 E 9 13 5 7 1026.4 1026.4 0.0
15/10:51am 13.6 11.8 9.6 77 2.1 ESE 9 15 5 8 1026.4 1026.4 0.0
15/10:30am 13.9 12.4 10.7 81 1.7 ESE 9 15 5 8 1026.4 1026.4 0.0
15/10:00am 12.4 11.1 10.0 85 1.2 ESE 7 11 4 6 1026.3 1026.3 0.0
15/09:30am 11.5 9.7 9.4 87 1.1 SE 9 13 5 7 1026.2 1026.2 0.0
15/09:00am 10.9 9.4 9.0 88 0.9 ESE 7 15 4 8 1026.1 1026.1 0.0
15/08:30am 11.1 9.7 9.4 89 0.9 SE 7 13 4 7 1026.0 1026.0 0.0
15/08:00am 10.5 8.9 8.8 89 0.8 SE 7 11 4 6 1025.7 1025.7 0.0
15/07:30am 10.3 9.3 8.7 90 0.8 ESE 4 7 2 4 1025.5 1025.5 0.0
15/07:00am 10.4 9.4 8.8 90 0.8 ESE 4 9 2 5 1025.2 1025.2 0.0
15/06:30am 10.4 8.9 9.0 91 0.7 SW 7 9 4 5 1024.9 1025.0 0.0
15/06:00am 10.3 10.1 8.9 91 0.7 CALM 0 0 0 0 1024.7 1024.8 0.0
15/05:30am 10.1 9.8 8.7 91 0.7 CALM 0 0 0 0 1024.8 1024.9 0.0
15/05:00am 10.1 9.8 8.7 91 0.7 CALM 0 0 0 0 1024.8 1024.9 0.0
15/04:30am 10.1 9.8 8.7 91 0.7 CALM 0 0 0 0 1024.8 1024.9 0.0
15/04:00am 9.8 9.4 8.4 91 0.7 CALM 0 0 0 0 1024.9 1025.0 0.0
15/03:30am 9.4 8.9 8.0 91 0.7 CALM 0 0 0 0 1024.8 1024.9 0.0
15/03:00am 8.1 7.3 6.7 91 0.6 CALM 0 0 0 0 1025.0 1025.1 0.0
15/02:30am 7.5 6.6 6.0 90 0.7 CALM 0 0 0 0 1025.2 1025.2 0.0
15/02:22am 7.3 6.3 5.8 90 0.7 CALM 0 0 0 0 1025.4 1025.4 0.0
15/02:00am 7.3 6.3 5.8 90 0.7 CALM 0 0 0 0 1025.5 1025.5 0.0
15/01:30am 7.9 7.0 6.2 89 0.8 CALM 0 0 0 0 1025.6 1025.6 0.0
15/01:11am 8.2 7.4 6.5 89 0.8 CALM 0 0 0 0 1025.5 1025.5 0.0
15/01:00am 8.4 7.6 6.7 89 0.8 CALM 0 0 0 0 1025.5 1025.5 0.0
15/12:30am 7.8 6.9 6.1 89 0.8 CALM 0 0 0 0 1025.6 1025.6 0.0
15/12:10am 7.5 6.5 5.8 89 0.8 CALM 0 0 0 0 1025.5 1025.5 0.0
15/12:00am 7.5 6.5 5.6 88 0.8 CALM 0 0 0 0 1025.4 1025.4 0.0
 
Date/Time
EDT
Temp
°C
App
Temp
°C
Dew
Point
°C
Rel
Hum
%
Delta-T
°C
Wind Press
QNH
hPa
Press
MSL
hPa
Rain since
9am
mm
Dir  Spd
km/h
Gust
km/h
Spd
kts
Gust
kts
14/11:30pm 7.8 6.9 5.9 88 0.9 CALM 0 0 0 0 1025.6 1025.6 0.0
14/11:00pm 8.2 7.3 6.2 87 0.9 CALM 0 0 0 0 1025.7 1025.7 0.0
14/10:30pm 8.3 7.4 6.1 86 1.0 CALM 0 0 0 0 1025.9 1025.9 0.0
14/10:00pm 9.1 8.3 6.7 85 1.1 CALM 0 0 0 0 1025.9 1025.9 0.0
14/09:30pm 9.5 8.8 6.9 84 1.2 CALM 0 0 0 0 1025.9 1025.9 0.0
14/09:00pm 10.7 9.0 7.6 81 1.5 SW 6 9 3 5 1025.9 1025.9 0.0
14/08:30pm 11.1 9.3 7.8 80 1.6 SW 7 9 4 5 1026.0 1026.0 0.0
14/08:00pm 11.7 10.1 7.8 77 1.9 SW 6 9 3 5 1025.8 1025.8 0.0
14/07:30pm 12.4 10.6 7.9 74 2.2 SSW 7 13 4 7 1025.6 1025.6 0.0
14/07:00pm 12.9 10.4 8.2 73 2.3 SSW 11 15 6 8 1025.5 1025.5 0.0

Other Formats:

Comma delimited format used in spreadsheet applications
http://www.bom.gov.au/fwo/IDV60801/IDV60801.94828.axf

JavaScript Object Notation format (JSON) in row-major order
http://www.bom.gov.au/fwo/IDV60801/IDV60801.94828.json